sensor_id;sensor_type;location;lat;lon;timestamp;P1;durP1;ratioP1;P2;durP2;ratioP2
27666;SDS011;15074;50.940;5.282;2023-02-28T00:02:42;10.50;;;7.72;;
27666;SDS011;15074;50.940;5.282;2023-02-28T00:05:11;8.30;;;7.50;;
27666;SDS011;15074;50.940;5.282;2023-02-28T00:07:38;10.25;;;7.70;;
27666;SDS011;15074;50.940;5.282;2023-02-28T00:10:05;12.65;;;7.45;;
27666;SDS011;15074;50.940;5.282;2023-02-28T00:12:33;8.02;;;7.32;;
27666;SDS011;15074;50.940;5.282;2023-02-28T00:15:00;10.60;;;7.63;;
27666;SDS011;15074;50.940;5.282;2023-02-28T00:23:33;11.57;;;7.10;;
27666;SDS011;15074;50.940;5.282;2023-02-28T00:25:59;8.20;;;7.45;;
27666;SDS011;15074;50.940;5.282;2023-02-28T00:35:27;11.02;;;7.93;;
27666;SDS011;15074;50.940;5.282;2023-02-28T00:40:37;7.68;;;6.88;;
27666;SDS011;15074;50.940;5.282;2023-02-28T00:43:02;9.00;;;8.10;;
27666;SDS011;15074;50.940;5.282;2023-02-28T00:59:24;10.52;;;8.35;;
27666;SDS011;15074;50.940;5.282;2023-02-28T01:01:51;12.68;;;7.88;;
27666;SDS011;15074;50.940;5.282;2023-02-28T01:04:17;9.35;;;8.52;;
27666;SDS011;15074;50.940;5.282;2023-02-28T01:06:43;9.13;;;8.23;;
27666;SDS011;15074;50.940;5.282;2023-02-28T01:12:52;8.30;;;7.43;;
27666;SDS011;15074;50.940;5.282;2023-02-28T01:15:17;10.07;;;7.90;;
27666;SDS011;15074;50.940;5.282;2023-02-28T01:17:43;9.20;;;8.25;;
27666;SDS011;15074;50.940;5.282;2023-02-28T02:04:27;9.23;;;7.85;;
27666;SDS011;15074;50.940;5.282;2023-02-28T02:07:00;10.23;;;9.15;;
27666;SDS011;15074;50.940;5.282;2023-02-28T02:09:26;12.77;;;9.93;;
27666;SDS011;15074;50.940;5.282;2023-02-28T02:48:44;10.90;;;9.90;;
27666;SDS011;15074;50.940;5.282;2023-02-28T02:51:15;13.00;;;11.68;;
27666;SDS011;15074;50.940;5.282;2023-02-28T03:27:07;13.48;;;11.40;;
27666;SDS011;15074;50.940;5.282;2023-02-28T03:30:22;21.17;;;11.00;;
27666;SDS011;15074;50.940;5.282;2023-02-28T03:33:41;11.73;;;10.57;;
27666;SDS011;15074;50.940;5.282;2023-02-28T03:36:51;13.98;;;11.32;;
27666;SDS011;15074;50.940;5.282;2023-02-28T03:53:34;12.25;;;10.95;;
27666;SDS011;15074;50.940;5.282;2023-02-28T04:11:21;12.25;;;11.05;;
27666;SDS011;15074;50.940;5.282;2023-02-28T04:13:54;13.55;;;11.90;;
27666;SDS011;15074;50.940;5.282;2023-02-28T04:16:20;13.63;;;10.93;;
27666;SDS011;15074;50.940;5.282;2023-02-28T05:06:24;14.88;;;11.65;;
27666;SDS011;15074;50.940;5.282;2023-02-28T05:31:52;17.08;;;12.32;;
27666;SDS011;15074;50.940;5.282;2023-02-28T05:34:17;13.52;;;11.98;;
27666;SDS011;15074;50.940;5.282;2023-02-28T06:17:18;15.63;;;13.00;;
27666;SDS011;15074;50.940;5.282;2023-02-28T06:19:44;14.70;;;13.00;;
27666;SDS011;15074;50.940;5.282;2023-02-28T06:22:14;15.75;;;13.65;;
27666;SDS011;15074;50.940;5.282;2023-02-28T06:27:25;13.88;;;12.48;;
27666;SDS011;15074;50.940;5.282;2023-02-28T06:29:53;14.32;;;12.82;;
27666;SDS011;15074;50.940;5.282;2023-02-28T06:35:50;16.40;;;12.85;;
27666;SDS011;15074;50.940;5.282;2023-02-28T07:01:56;11.15;;;10.00;;
27666;SDS011;15074;50.940;5.282;2023-02-28T07:04:22;11.50;;;10.02;;
27666;SDS011;15074;50.940;5.282;2023-02-28T07:06:48;10.30;;;9.32;;
27666;SDS011;15074;50.940;5.282;2023-02-28T07:09:13;10.77;;;9.32;;
27666;SDS011;15074;50.940;5.282;2023-02-28T07:11:40;14.00;;;9.07;;
27666;SDS011;15074;50.940;5.282;2023-02-28T07:14:07;8.82;;;8.00;;
27666;SDS011;15074;50.940;5.282;2023-02-28T07:16:33;10.38;;;8.93;;
27666;SDS011;15074;50.940;5.282;2023-02-28T07:18:59;10.98;;;9.80;;
27666;SDS011;15074;50.940;5.282;2023-02-28T07:21:24;9.95;;;8.50;;
27666;SDS011;15074;50.940;5.282;2023-02-28T07:23:50;10.50;;;8.73;;
27666;SDS011;15074;50.940;5.282;2023-02-28T07:26:17;15.35;;;8.65;;
27666;SDS011;15074;50.940;5.282;2023-02-28T07:28:44;10.15;;;8.88;;
27666;SDS011;15074;50.940;5.282;2023-02-28T07:31:11;13.15;;;9.35;;
27666;SDS011;15074;50.940;5.282;2023-02-28T07:33:39;10.23;;;8.70;;
27666;SDS011;15074;50.940;5.282;2023-02-28T07:36:12;12.07;;;9.02;;
27666;SDS011;15074;50.940;5.282;2023-02-28T07:38:44;9.57;;;8.27;;
27666;SDS011;15074;50.940;5.282;2023-02-28T07:41:15;10.40;;;8.73;;
27666;SDS011;15074;50.940;5.282;2023-02-28T07:43:42;8.97;;;8.07;;
27666;SDS011;15074;50.940;5.282;2023-02-28T08:03:21;7.35;;;6.65;;
27666;SDS011;15074;50.940;5.282;2023-02-28T08:05:48;8.10;;;6.55;;
27666;SDS011;15074;50.940;5.282;2023-02-28T08:08:14;6.95;;;6.35;;
27666;SDS011;15074;50.940;5.282;2023-02-28T08:10:41;8.55;;;6.05;;
27666;SDS011;15074;50.940;5.282;2023-02-28T08:13:07;7.22;;;6.07;;
27666;SDS011;15074;50.940;5.282;2023-02-28T08:15:33;6.22;;;5.40;;
27666;SDS011;15074;50.940;5.282;2023-02-28T08:17:59;5.82;;;5.20;;
27666;SDS011;15074;50.940;5.282;2023-02-28T08:20:25;5.90;;;5.00;;
27666;SDS011;15074;50.940;5.282;2023-02-28T08:22:51;5.88;;;5.28;;
27666;SDS011;15074;50.940;5.282;2023-02-28T08:25:17;5.63;;;5.13;;
27666;SDS011;15074;50.940;5.282;2023-02-28T08:27:43;5.20;;;4.70;;
27666;SDS011;15074;50.940;5.282;2023-02-28T08:30:12;13.38;;;5.60;;
27666;SDS011;15074;50.940;5.282;2023-02-28T08:32:39;6.47;;;5.28;;
27666;SDS011;15074;50.940;5.282;2023-02-28T08:35:05;7.57;;;5.10;;
27666;SDS011;15074;50.940;5.282;2023-02-28T08:37:31;6.72;;;5.38;;
27666;SDS011;15074;50.940;5.282;2023-02-28T08:39:57;5.70;;;4.75;;
27666;SDS011;15074;50.940;5.282;2023-02-28T08:42:23;5.57;;;4.22;;
27666;SDS011;15074;50.940;5.282;2023-02-28T08:44:49;5.10;;;4.15;;
27666;SDS011;15074;50.940;5.282;2023-02-28T08:47:15;5.07;;;4.57;;
27666;SDS011;15074;50.940;5.282;2023-02-28T08:49:40;7.47;;;4.93;;
27666;SDS011;15074;50.940;5.282;2023-02-28T08:52:06;4.97;;;4.38;;
27666;SDS011;15074;50.940;5.282;2023-02-28T08:54:32;4.93;;;4.30;;
27666;SDS011;15074;50.940;5.282;2023-02-28T08:56:59;5.00;;;4.50;;
27666;SDS011;15074;50.940;5.282;2023-02-28T08:59:25;7.50;;;4.47;;
27666;SDS011;15074;50.940;5.282;2023-02-28T09:01:50;5.22;;;3.90;;
27666;SDS011;15074;50.940;5.282;2023-02-28T09:04:16;5.22;;;4.32;;
27666;SDS011;15074;50.940;5.282;2023-02-28T09:06:41;4.38;;;3.92;;
27666;SDS011;15074;50.940;5.282;2023-02-28T09:09:07;4.85;;;3.63;;
27666;SDS011;15074;50.940;5.282;2023-02-28T09:11:34;6.55;;;3.78;;
27666;SDS011;15074;50.940;5.282;2023-02-28T09:14:00;4.72;;;4.00;;
27666;SDS011;15074;50.940;5.282;2023-02-28T09:16:28;3.47;;;3.17;;
27666;SDS011;15074;50.940;5.282;2023-02-28T09:18:55;4.68;;;3.45;;
27666;SDS011;15074;50.940;5.282;2023-02-28T09:21:21;3.83;;;3.42;;
27666;SDS011;15074;50.940;5.282;2023-02-28T09:23:48;4.82;;;3.30;;
27666;SDS011;15074;50.940;5.282;2023-02-28T09:26:18;4.87;;;2.70;;
27666;SDS011;15074;50.940;5.282;2023-02-28T09:28:48;3.00;;;2.50;;
27666;SDS011;15074;50.940;5.282;2023-02-28T09:31:19;4.32;;;2.58;;
27666;SDS011;15074;50.940;5.282;2023-02-28T09:33:49;3.38;;;2.97;;
27666;SDS011;15074;50.940;5.282;2023-02-28T09:36:16;3.13;;;2.23;;
27666;SDS011;15074;50.940;5.282;2023-02-28T09:38:42;2.72;;;2.22;;
27666;SDS011;15074;50.940;5.282;2023-02-28T09:41:19;3.22;;;2.20;;
27666;SDS011;15074;50.940;5.282;2023-02-28T09:43:59;3.83;;;2.17;;
27666;SDS011;15074;50.940;5.282;2023-02-28T09:46:29;3.05;;;2.65;;
27666;SDS011;15074;50.940;5.282;2023-02-28T09:49:05;3.75;;;2.40;;
27666;SDS011;15074;50.940;5.282;2023-02-28T09:51:39;4.28;;;1.83;;
27666;SDS011;15074;50.940;5.282;2023-02-28T09:54:19;3.17;;;1.80;;
27666;SDS011;15074;50.940;5.282;2023-02-28T09:56:51;3.08;;;1.90;;
27666;SDS011;15074;50.940;5.282;2023-02-28T10:09:58;3.10;;;1.90;;
27666;SDS011;15074;50.940;5.282;2023-02-28T10:12:29;2.75;;;2.00;;
27666;SDS011;15074;50.940;5.282;2023-02-28T10:14:57;3.38;;;1.55;;
27666;SDS011;15074;50.940;5.282;2023-02-28T10:17:30;2.90;;;1.70;;
27666;SDS011;15074;50.940;5.282;2023-02-28T10:20:12;2.13;;;1.88;;
27666;SDS011;15074;50.940;5.282;2023-02-28T10:22:57;3.00;;;1.85;;
27666;SDS011;15074;50.940;5.282;2023-02-28T10:25:45;2.45;;;1.80;;
27666;SDS011;15074;50.940;5.282;2023-02-28T10:28:33;3.85;;;1.88;;
27666;SDS011;15074;50.940;5.282;2023-02-28T10:30:58;3.17;;;2.08;;
27666;SDS011;15074;50.940;5.282;2023-02-28T10:33:27;5.57;;;2.38;;
27666;SDS011;15074;50.940;5.282;2023-02-28T10:35:57;5.50;;;1.48;;
27666;SDS011;15074;50.940;5.282;2023-02-28T10:38:28;2.30;;;1.70;;
27666;SDS011;15074;50.940;5.282;2023-02-28T10:41:03;2.65;;;1.50;;
27666;SDS011;15074;50.940;5.282;2023-02-28T10:43:41;2.13;;;1.60;;
27666;SDS011;15074;50.940;5.282;2023-02-28T10:48:38;3.05;;;1.90;;
27666;SDS011;15074;50.940;5.282;2023-02-28T10:51:18;3.05;;;1.60;;
27666;SDS011;15074;50.940;5.282;2023-02-28T10:53:53;1.80;;;1.40;;
27666;SDS011;15074;50.940;5.282;2023-02-28T10:56:21;2.30;;;1.30;;
27666;SDS011;15074;50.940;5.282;2023-02-28T11:01:21;2.92;;;1.63;;
27666;SDS011;15074;50.940;5.282;2023-02-28T11:03:49;1.60;;;1.40;;
27666;SDS011;15074;50.940;5.282;2023-02-28T11:06:17;3.13;;;1.60;;
27666;SDS011;15074;50.940;5.282;2023-02-28T11:08:48;2.63;;;1.63;;
27666;SDS011;15074;50.940;5.282;2023-02-28T11:11:17;1.77;;;1.48;;
27666;SDS011;15074;50.940;5.282;2023-02-28T11:13:44;3.47;;;2.00;;
27666;SDS011;15074;50.940;5.282;2023-02-28T11:16:12;7.03;;;1.60;;
27666;SDS011;15074;50.940;5.282;2023-02-28T11:21:08;3.40;;;1.75;;
27666;SDS011;15074;50.940;5.282;2023-02-28T11:23:41;3.28;;;2.00;;
27666;SDS011;15074;50.940;5.282;2023-02-28T11:26:07;2.60;;;2.20;;
27666;SDS011;15074;50.940;5.282;2023-02-28T11:36:09;2.42;;;1.85;;
27666;SDS011;15074;50.940;5.282;2023-02-28T11:38:52;4.70;;;1.60;;
27666;SDS011;15074;50.940;5.282;2023-02-28T11:41:30;2.13;;;1.33;;
27666;SDS011;15074;50.940;5.282;2023-02-28T11:46:51;2.58;;;1.75;;
27666;SDS011;15074;50.940;5.282;2023-02-28T12:05:29;2.22;;;1.52;;
27666;SDS011;15074;50.940;5.282;2023-02-28T12:10:28;1.83;;;1.65;;
27666;SDS011;15074;50.940;5.282;2023-02-28T12:21:34;3.25;;;1.73;;
27666;SDS011;15074;50.940;5.282;2023-02-28T12:26:43;5.68;;;1.80;;
27666;SDS011;15074;50.940;5.282;2023-02-28T12:29:13;2.65;;;1.98;;
27666;SDS011;15074;50.940;5.282;2023-02-28T12:31:53;4.82;;;1.73;;
27666;SDS011;15074;50.940;5.282;2023-02-28T12:34:38;2.17;;;1.90;;
27666;SDS011;15074;50.940;5.282;2023-02-28T12:37:09;3.35;;;1.90;;
27666;SDS011;15074;50.940;5.282;2023-02-28T12:39:44;2.53;;;2.08;;
27666;SDS011;15074;50.940;5.282;2023-02-28T12:42:17;2.40;;;1.70;;
27666;SDS011;15074;50.940;5.282;2023-02-28T12:44:52;3.33;;;2.10;;
27666;SDS011;15074;50.940;5.282;2023-02-28T12:47:23;4.30;;;2.08;;
27666;SDS011;15074;50.940;5.282;2023-02-28T12:49:50;2.67;;;2.15;;
27666;SDS011;15074;50.940;5.282;2023-02-28T12:58:13;2.45;;;1.83;;
27666;SDS011;15074;50.940;5.282;2023-02-28T13:03:56;4.00;;;3.40;;
27666;SDS011;15074;50.940;5.282;2023-02-28T13:07:03;3.08;;;2.30;;
27666;SDS011;15074;50.940;5.282;2023-02-28T13:09:33;6.15;;;5.53;;
27666;SDS011;15074;50.940;5.282;2023-02-28T13:11:59;3.00;;;2.75;;
27666;SDS011;15074;50.940;5.282;2023-02-28T13:17:10;5.05;;;2.63;;
27666;SDS011;15074;50.940;5.282;2023-02-28T13:19:42;3.38;;;2.65;;
27666;SDS011;15074;50.940;5.282;2023-02-28T13:22:39;3.60;;;2.67;;
27666;SDS011;15074;50.940;5.282;2023-02-28T13:27:54;3.35;;;2.97;;
27666;SDS011;15074;50.940;5.282;2023-02-28T13:36:06;2.67;;;2.38;;
27666;SDS011;15074;50.940;5.282;2023-02-28T13:38:45;3.45;;;2.20;;
27666;SDS011;15074;50.940;5.282;2023-02-28T13:46:36;2.88;;;2.60;;
27666;SDS011;15074;50.940;5.282;2023-02-28T13:54:42;3.03;;;2.53;;
27666;SDS011;15074;50.940;5.282;2023-02-28T13:57:42;2.88;;;2.60;;
27666;SDS011;15074;50.940;5.282;2023-02-28T14:03:18;4.15;;;3.17;;
27666;SDS011;15074;50.940;5.282;2023-02-28T14:06:03;3.20;;;2.38;;
27666;SDS011;15074;50.940;5.282;2023-02-28T14:11:31;5.47;;;2.45;;
27666;SDS011;15074;50.940;5.282;2023-02-28T14:13:58;3.92;;;2.90;;
27666;SDS011;15074;50.940;5.282;2023-02-28T14:16:26;3.25;;;2.63;;
27666;SDS011;15074;50.940;5.282;2023-02-28T14:21:48;2.90;;;2.60;;
27666;SDS011;15074;50.940;5.282;2023-02-28T14:37:48;4.47;;;2.80;;
27666;SDS011;15074;50.940;5.282;2023-02-28T14:40:26;3.60;;;3.00;;
27666;SDS011;15074;50.940;5.282;2023-02-28T14:42:56;3.25;;;2.85;;
27666;SDS011;15074;50.940;5.282;2023-02-28T14:45:24;5.85;;;2.70;;
27666;SDS011;15074;50.940;5.282;2023-02-28T14:47:55;3.72;;;2.90;;
27666;SDS011;15074;50.940;5.282;2023-02-28T14:52:58;4.25;;;2.60;;
27666;SDS011;15074;50.940;5.282;2023-02-28T14:55:26;6.40;;;2.72;;
27666;SDS011;15074;50.940;5.282;2023-02-28T14:57:58;2.75;;;2.28;;
27666;SDS011;15074;50.940;5.282;2023-02-28T15:00:35;3.40;;;2.17;;
27666;SDS011;15074;50.940;5.282;2023-02-28T15:03:22;5.68;;;2.70;;
27666;SDS011;15074;50.940;5.282;2023-02-28T15:05:51;3.40;;;3.10;;
27666;SDS011;15074;50.940;5.282;2023-02-28T15:08:25;3.95;;;3.00;;
27666;SDS011;15074;50.940;5.282;2023-02-28T15:11:39;3.72;;;2.47;;
27666;SDS011;15074;50.940;5.282;2023-02-28T15:13:45;3.35;;;3.05;;
27666;SDS011;15074;50.940;5.282;2023-02-28T15:16:15;3.50;;;3.20;;
27666;SDS011;15074;50.940;5.282;2023-02-28T15:21:25;3.00;;;2.60;;
27666;SDS011;15074;50.940;5.282;2023-02-28T15:23:53;3.13;;;2.75;;
27666;SDS011;15074;50.940;5.282;2023-02-28T15:26:22;4.25;;;2.78;;
27666;SDS011;15074;50.940;5.282;2023-02-28T15:28:54;4.03;;;3.30;;
27666;SDS011;15074;50.940;5.282;2023-02-28T15:31:49;5.03;;;2.60;;
27666;SDS011;15074;50.940;5.282;2023-02-28T15:34:35;4.45;;;2.78;;
27666;SDS011;15074;50.940;5.282;2023-02-28T15:37:25;3.60;;;2.97;;
27666;SDS011;15074;50.940;5.282;2023-02-28T15:39:55;5.10;;;3.25;;
27666;SDS011;15074;50.940;5.282;2023-02-28T15:42:27;3.80;;;3.40;;
27666;SDS011;15074;50.940;5.282;2023-02-28T15:44:54;3.60;;;3.00;;
27666;SDS011;15074;50.940;5.282;2023-02-28T15:47:24;4.50;;;3.13;;
27666;SDS011;15074;50.940;5.282;2023-02-28T15:49:59;3.67;;;3.28;;
27666;SDS011;15074;50.940;5.282;2023-02-28T15:52:28;3.80;;;3.15;;
27666;SDS011;15074;50.940;5.282;2023-02-28T15:55:23;3.45;;;3.05;;
27666;SDS011;15074;50.940;5.282;2023-02-28T15:57:53;4.10;;;3.70;;
27666;SDS011;15074;50.940;5.282;2023-02-28T16:00:22;3.65;;;3.33;;
27666;SDS011;15074;50.940;5.282;2023-02-28T16:02:49;3.85;;;3.47;;
27666;SDS011;15074;50.940;5.282;2023-02-28T16:05:29;5.28;;;3.15;;
27666;SDS011;15074;50.940;5.282;2023-02-28T16:08:14;4.55;;;3.00;;
27666;SDS011;15074;50.940;5.282;2023-02-28T16:10:40;4.00;;;3.60;;
27666;SDS011;15074;50.940;5.282;2023-02-28T16:13:06;4.38;;;3.60;;
27666;SDS011;15074;50.940;5.282;2023-02-28T16:15:37;4.18;;;3.78;;
27666;SDS011;15074;50.940;5.282;2023-02-28T16:18:07;3.65;;;3.28;;
27666;SDS011;15074;50.940;5.282;2023-02-28T16:20:37;6.28;;;3.75;;
27666;SDS011;15074;50.940;5.282;2023-02-28T16:23:03;4.25;;;3.85;;
27666;SDS011;15074;50.940;5.282;2023-02-28T16:25:33;3.83;;;3.42;;
27666;SDS011;15074;50.940;5.282;2023-02-28T16:28:01;5.15;;;3.42;;
27666;SDS011;15074;50.940;5.282;2023-02-28T16:30:28;6.32;;;3.92;;
27666;SDS011;15074;50.940;5.282;2023-02-28T16:32:58;4.93;;;4.13;;
27666;SDS011;15074;50.940;5.282;2023-02-28T16:35:24;3.65;;;3.35;;
27666;SDS011;15074;50.940;5.282;2023-02-28T16:37:51;5.47;;;3.83;;
27666;SDS011;15074;50.940;5.282;2023-02-28T16:40:19;4.55;;;3.70;;
27666;SDS011;15074;50.940;5.282;2023-02-28T16:42:50;5.82;;;3.75;;
27666;SDS011;15074;50.940;5.282;2023-02-28T16:45:24;5.90;;;3.40;;
27666;SDS011;15074;50.940;5.282;2023-02-28T16:47:51;3.78;;;3.38;;
27666;SDS011;15074;50.940;5.282;2023-02-28T16:50:27;5.22;;;3.60;;
27666;SDS011;15074;50.940;5.282;2023-02-28T16:52:55;5.13;;;3.30;;
27666;SDS011;15074;50.940;5.282;2023-02-28T16:55:21;4.80;;;4.03;;
27666;SDS011;15074;50.940;5.282;2023-02-28T16:57:53;4.03;;;3.67;;
27666;SDS011;15074;50.940;5.282;2023-02-28T17:00:23;6.03;;;4.30;;
27666;SDS011;15074;50.940;5.282;2023-02-28T17:02:51;4.97;;;4.50;;
27666;SDS011;15074;50.940;5.282;2023-02-28T17:05:17;4.93;;;4.47;;
27666;SDS011;15074;50.940;5.282;2023-02-28T17:07:44;6.00;;;4.30;;
27666;SDS011;15074;50.940;5.282;2023-02-28T17:10:23;8.23;;;4.55;;
27666;SDS011;15074;50.940;5.282;2023-02-28T17:12:50;7.00;;;4.03;;
27666;SDS011;15074;50.940;5.282;2023-02-28T17:15:18;4.43;;;3.88;;
27666;SDS011;15074;50.940;5.282;2023-02-28T17:17:44;4.57;;;3.73;;
27666;SDS011;15074;50.940;5.282;2023-02-28T17:20:16;5.13;;;4.38;;
27666;SDS011;15074;50.940;5.282;2023-02-28T17:29:27;5.07;;;4.47;;
27666;SDS011;15074;50.940;5.282;2023-02-28T17:31:53;11.15;;;4.65;;
27666;SDS011;15074;50.940;5.282;2023-02-28T17:34:18;6.88;;;4.93;;
27666;SDS011;15074;50.940;5.282;2023-02-28T17:39:36;5.85;;;5.28;;
27666;SDS011;15074;50.940;5.282;2023-02-28T17:42:02;5.82;;;5.00;;
27666;SDS011;15074;50.940;5.282;2023-02-28T17:44:27;13.07;;;8.40;;
27666;SDS011;15074;50.940;5.282;2023-02-28T17:46:53;9.68;;;7.90;;
27666;SDS011;15074;50.940;5.282;2023-02-28T17:49:20;8.65;;;7.18;;
27666;SDS011;15074;50.940;5.282;2023-02-28T17:51:47;7.22;;;6.25;;
27666;SDS011;15074;50.940;5.282;2023-02-28T17:54:13;8.63;;;5.22;;
27666;SDS011;15074;50.940;5.282;2023-02-28T17:56:39;7.50;;;4.65;;
27666;SDS011;15074;50.940;5.282;2023-02-28T18:01:34;6.25;;;5.68;;
27666;SDS011;15074;50.940;5.282;2023-02-28T18:03:59;6.78;;;4.50;;
27666;SDS011;15074;50.940;5.282;2023-02-28T18:06:27;11.23;;;4.75;;
27666;SDS011;15074;50.940;5.282;2023-02-28T18:08:58;6.03;;;3.88;;
27666;SDS011;15074;50.940;5.282;2023-02-28T18:11:24;3.60;;;3.20;;
27666;SDS011;15074;50.940;5.282;2023-02-28T18:13:51;6.07;;;3.75;;
27666;SDS011;15074;50.940;5.282;2023-02-28T18:18:46;5.57;;;3.97;;
27666;SDS011;15074;50.940;5.282;2023-02-28T18:21:12;5.43;;;4.20;;
27666;SDS011;15074;50.940;5.282;2023-02-28T18:23:39;6.05;;;3.92;;
27666;SDS011;15074;50.940;5.282;2023-02-28T18:30:03;5.00;;;4.43;;
27666;SDS011;15074;50.940;5.282;2023-02-28T18:35:16;5.35;;;4.80;;
27666;SDS011;15074;50.940;5.282;2023-02-28T18:38:06;7.28;;;4.55;;
27666;SDS011;15074;50.940;5.282;2023-02-28T18:40:33;5.97;;;5.40;;
27666;SDS011;15074;50.940;5.282;2023-02-28T18:52:35;6.75;;;5.57;;
27666;SDS011;15074;50.940;5.282;2023-02-28T18:55:03;5.75;;;4.75;;
27666;SDS011;15074;50.940;5.282;2023-02-28T18:57:29;6.45;;;5.68;;
27666;SDS011;15074;50.940;5.282;2023-02-28T18:59:54;10.40;;;6.15;;
27666;SDS011;15074;50.940;5.282;2023-02-28T19:02:20;6.53;;;5.68;;
27666;SDS011;15074;50.940;5.282;2023-02-28T19:04:48;9.30;;;7.20;;
27666;SDS011;15074;50.940;5.282;2023-02-28T19:07:14;11.10;;;7.60;;
27666;SDS011;15074;50.940;5.282;2023-02-28T19:09:39;8.10;;;7.30;;
27666;SDS011;15074;50.940;5.282;2023-02-28T19:12:05;8.38;;;7.25;;
27666;SDS011;15074;50.940;5.282;2023-02-28T19:14:31;13.48;;;8.15;;
27666;SDS011;15074;50.940;5.282;2023-02-28T19:20:01;9.57;;;8.73;;
27666;SDS011;15074;50.940;5.282;2023-02-28T19:22:27;11.32;;;8.13;;
27666;SDS011;15074;50.940;5.282;2023-02-28T19:28:19;14.80;;;8.95;;
27666;SDS011;15074;50.940;5.282;2023-02-28T19:30:46;9.55;;;8.27;;
27666;SDS011;15074;50.940;5.282;2023-02-28T19:33:14;10.60;;;9.55;;
27666;SDS011;15074;50.940;5.282;2023-02-28T19:35:43;10.00;;;8.48;;
27666;SDS011;15074;50.940;5.282;2023-02-28T19:38:09;9.98;;;8.98;;
27666;SDS011;15074;50.940;5.282;2023-02-28T19:40:35;12.35;;;8.55;;
27666;SDS011;15074;50.940;5.282;2023-02-28T19:43:05;9.65;;;8.65;;
27666;SDS011;15074;50.940;5.282;2023-02-28T19:45:32;9.50;;;8.52;;
27666;SDS011;15074;50.940;5.282;2023-02-28T19:47:58;10.40;;;9.50;;
27666;SDS011;15074;50.940;5.282;2023-02-28T19:50:24;11.93;;;8.52;;
27666;SDS011;15074;50.940;5.282;2023-02-28T19:52:50;9.45;;;8.55;;
27666;SDS011;15074;50.940;5.282;2023-02-28T20:01:20;10.75;;;9.43;;
27666;SDS011;15074;50.940;5.282;2023-02-28T20:03:46;12.10;;;10.77;;
27666;SDS011;15074;50.940;5.282;2023-02-28T20:06:24;13.30;;;10.50;;
27666;SDS011;15074;50.940;5.282;2023-02-28T20:11:35;12.95;;;11.48;;
27666;SDS011;15074;50.940;5.282;2023-02-28T20:14:00;12.50;;;11.30;;
27666;SDS011;15074;50.940;5.282;2023-02-28T20:16:29;14.48;;;11.05;;
27666;SDS011;15074;50.940;5.282;2023-02-28T20:35:47;13.45;;;10.50;;
27666;SDS011;15074;50.940;5.282;2023-02-28T20:45:17;11.90;;;10.20;;
27666;SDS011;15074;50.940;5.282;2023-02-28T20:51:12;12.48;;;10.73;;
27666;SDS011;15074;50.940;5.282;2023-02-28T21:02:51;14.73;;;13.05;;
27666;SDS011;15074;50.940;5.282;2023-02-28T21:05:16;12.43;;;11.20;;
27666;SDS011;15074;50.940;5.282;2023-02-28T21:07:46;18.70;;;11.40;;
27666;SDS011;15074;50.940;5.282;2023-02-28T21:13:15;12.05;;;10.77;;
27666;SDS011;15074;50.940;5.282;2023-02-28T21:15:40;12.65;;;10.70;;
27666;SDS011;15074;50.940;5.282;2023-02-28T21:18:06;12.15;;;11.02;;
27666;SDS011;15074;50.940;5.282;2023-02-28T21:24:10;10.45;;;9.45;;
27666;SDS011;15074;50.940;5.282;2023-02-28T22:00:46;10.88;;;9.77;;
27666;SDS011;15074;50.940;5.282;2023-02-28T22:03:12;11.57;;;9.57;;
27666;SDS011;15074;50.940;5.282;2023-02-28T22:05:37;12.23;;;10.90;;
27666;SDS011;15074;50.940;5.282;2023-02-28T22:13:27;16.15;;;11.60;;
27666;SDS011;15074;50.940;5.282;2023-02-28T22:15:53;14.43;;;10.63;;
27666;SDS011;15074;50.940;5.282;2023-02-28T22:18:18;12.70;;;11.40;;
27666;SDS011;15074;50.940;5.282;2023-02-28T22:27:22;14.50;;;10.40;;
27666;SDS011;15074;50.940;5.282;2023-02-28T22:32:34;11.25;;;10.13;;
27666;SDS011;15074;50.940;5.282;2023-02-28T22:35:00;13.05;;;11.85;;
27666;SDS011;15074;50.940;5.282;2023-02-28T22:44:12;19.23;;;15.13;;
27666;SDS011;15074;50.940;5.282;2023-02-28T22:46:38;18.02;;;14.88;;
27666;SDS011;15074;50.940;5.282;2023-02-28T22:49:04;17.40;;;14.88;;
27666;SDS011;15074;50.940;5.282;2023-02-28T22:54:17;14.00;;;12.80;;
27666;SDS011;15074;50.940;5.282;2023-02-28T22:59:27;15.02;;;11.43;;
27666;SDS011;15074;50.940;5.282;2023-02-28T23:01:53;14.48;;;12.98;;
27666;SDS011;15074;50.940;5.282;2023-02-28T23:04:19;14.38;;;12.82;;
27666;SDS011;15074;50.940;5.282;2023-02-28T23:09:30;14.63;;;13.13;;
27666;SDS011;15074;50.940;5.282;2023-02-28T23:11:56;12.75;;;11.50;;
27666;SDS011;15074;50.940;5.282;2023-02-28T23:14:21;16.90;;;13.32;;
27666;SDS011;15074;50.940;5.282;2023-02-28T23:16:51;15.02;;;13.13;;
27666;SDS011;15074;50.940;5.282;2023-02-28T23:19:22;14.48;;;12.98;;
27666;SDS011;15074;50.940;5.282;2023-02-28T23:21:51;14.88;;;12.32;;
27666;SDS011;15074;50.940;5.282;2023-02-28T23:24:18;15.93;;;14.18;;
27666;SDS011;15074;50.940;5.282;2023-02-28T23:26:47;17.90;;;12.95;;
27666;SDS011;15074;50.940;5.282;2023-02-28T23:29:15;12.60;;;11.40;;
27666;SDS011;15074;50.940;5.282;2023-02-28T23:31:42;11.60;;;10.50;;
27666;SDS011;15074;50.940;5.282;2023-02-28T23:34:10;13.38;;;11.82;;
27666;SDS011;15074;50.940;5.282;2023-02-28T23:36:37;15.88;;;13.57;;
27666;SDS011;15074;50.940;5.282;2023-02-28T23:42:08;18.38;;;11.88;;
27666;SDS011;15074;50.940;5.282;2023-02-28T23:44:34;15.13;;;12.57;;
27666;SDS011;15074;50.940;5.282;2023-02-28T23:50:30;14.60;;;13.20;;
27666;SDS011;15074;50.940;5.282;2023-02-28T23:52:55;14.52;;;12.60;;
27666;SDS011;15074;50.940;5.282;2023-02-28T23:55:21;14.98;;;13.25;;
